EJU342Q LFKB-LFBD
Flight info
| Callsign | EJU342Q |
|---|---|
| Flight time | 1h 22m |
| Altitude | 32000 |
| Route | SODRI A3 OMARD DCT STP DCT PADKO DCT FJR DCT FISTO DCT MIRBA |
| Aircraft | A320/M-SDE2E3FGHIJ1RWXYZ/LB1 |
Departure
| Time | 2026-04-23 15:17 |
|---|---|
| Airport | Bastia-Poretta International airport (LFKB) |
Arrival
| Time | 2026-04-23 16:40 |
|---|---|
| Airport | Bordeaux–Mérignac Airport (LFBD) |
| Time | Latitude | Longitude | Altitude | Speed | Heading |
|---|---|---|---|---|---|
| 2026-04-23 14:39 | 42.54729 | 9.48210 | 35 ft | 0 kts | 253° |
| 2026-04-23 15:06 | 42.54734 | 9.48232 | 52 ft | 4 kts | 253° |
| 2026-04-23 15:06 | 42.54741 | 9.48261 | 35 ft | 3 kts | 253° |
| 2026-04-23 15:07 | 42.54751 | 9.48291 | 32 ft | 4 kts | 220° |
| 2026-04-23 15:07 | 42.54773 | 9.48302 | 34 ft | 4 kts | 165° |
| 2026-04-23 15:07 | 42.54792 | 9.48295 | 33 ft | 0 kts | 163° |
| 2026-04-23 15:13 | 42.54782 | 9.48299 | 34 ft | 4 kts | 163° |
| 2026-04-23 15:13 | 42.54740 | 9.48315 | 34 ft | 8 kts | 164° |
| 2026-04-23 15:13 | 42.54673 | 9.48344 | 33 ft | 11 kts | 162° |
| 2026-04-23 15:14 | 42.54603 | 9.48373 | 33 ft | 10 kts | 163° |
| 2026-04-23 15:14 | 42.54535 | 9.48400 | 35 ft | 10 kts | 163° |
| 2026-04-23 15:14 | 42.54469 | 9.48420 | 35 ft | 9 kts | 180° |
| 2026-04-23 15:14 | 42.54405 | 9.48417 | 34 ft | 9 kts | 172° |
| 2026-04-23 15:15 | 42.54346 | 9.48440 | 35 ft | 9 kts | 164° |
| 2026-04-23 15:15 | 42.54288 | 9.48462 | 35 ft | 8 kts | 164° |
| 2026-04-23 15:15 | 42.54234 | 9.48484 | 35 ft | 8 kts | 163° |
| 2026-04-23 15:15 | 42.54184 | 9.48512 | 34 ft | 8 kts | 149° |
| 2026-04-23 15:16 | 42.54149 | 9.48561 | 35 ft | 7 kts | 123° |
| 2026-04-23 15:16 | 42.54131 | 9.48619 | 33 ft | 6 kts | 106° |
| 2026-04-23 15:16 | 42.54130 | 9.48679 | 35 ft | 9 kts | 78° |
| 2026-04-23 15:16 | 42.54171 | 9.48770 | 35 ft | 12 kts | 51° |
| 2026-04-23 15:17 | 42.54251 | 9.48797 | 35 ft | 16 kts | 342° |
| 2026-04-23 15:17 | 42.54533 | 9.48679 | 32 ft | 83 kts | 343° |
| 2026-04-23 15:17 | 42.55331 | 9.48348 | 39 ft | 153 kts | 343° |
| 2026-04-23 15:17 | 42.56433 | 9.47910 | 630 ft | 168 kts | 345° |
| 2026-04-23 15:18 | 42.57574 | 9.47466 | 1475 ft | 178 kts | 344° |
| 2026-04-23 15:18 | 42.58844 | 9.46967 | 2175 ft | 200 kts | 346° |
| 2026-04-23 15:18 | 42.60254 | 9.46805 | 2996 ft | 209 kts | 15° |
| 2026-04-23 15:18 | 42.61630 | 9.47454 | 3849 ft | 212 kts | 23° |
| 2026-04-23 15:19 | 42.63082 | 9.48218 | 4286 ft | 236 kts | 23° |
| 2026-04-23 15:19 | 42.64687 | 9.49058 | 4826 ft | 255 kts | 23° |
| 2026-04-23 15:19 | 42.66363 | 9.49934 | 5688 ft | 260 kts | 23° |
| 2026-04-23 15:19 | 42.68062 | 9.50814 | 6627 ft | 263 kts | 22° |
| 2026-04-23 15:20 | 42.69805 | 9.51587 | 7516 ft | 267 kts | 10° |
| 2026-04-23 15:20 | 42.71661 | 9.51245 | 8374 ft | 279 kts | 337° |
| 2026-04-23 15:20 | 42.73141 | 9.49510 | 9248 ft | 291 kts | 305° |
| 2026-04-23 15:20 | 42.73828 | 9.46881 | 10121 ft | 301 kts | 285° |
| 2026-04-23 15:21 | 42.74317 | 9.44028 | 10515 ft | 321 kts | 288° |
| 2026-04-23 15:21 | 42.74972 | 9.41023 | 10880 ft | 338 kts | 291° |
| 2026-04-23 15:21 | 42.75719 | 9.37959 | 11602 ft | 344 kts | 292° |
| 2026-04-23 15:21 | 42.76502 | 9.34870 | 12382 ft | 347 kts | 292° |
| 2026-04-23 15:22 | 42.77304 | 9.31751 | 13179 ft | 351 kts | 292° |
| 2026-04-23 15:22 | 42.78112 | 9.28599 | 13938 ft | 355 kts | 292° |
| 2026-04-23 15:22 | 42.78933 | 9.25413 | 14620 ft | 358 kts | 292° |
| 2026-04-23 15:22 | 42.79763 | 9.22206 | 15289 ft | 361 kts | 292° |
| 2026-04-23 15:23 | 42.80597 | 9.18963 | 15967 ft | 364 kts | 292° |
| 2026-04-23 15:23 | 42.81439 | 9.15691 | 16652 ft | 367 kts | 292° |
| 2026-04-23 15:23 | 42.82293 | 9.12400 | 17331 ft | 370 kts | 292° |
| 2026-04-23 15:23 | 42.83149 | 9.09075 | 18003 ft | 373 kts | 292° |
| 2026-04-23 15:24 | 42.84005 | 9.05714 | 18598 ft | 378 kts | 292° |
| 2026-04-23 15:24 | 42.84876 | 9.02319 | 19143 ft | 381 kts | 292° |
| 2026-04-23 15:24 | 42.85754 | 8.98888 | 19700 ft | 385 kts | 291° |
| 2026-04-23 15:24 | 42.86638 | 8.95429 | 20241 ft | 388 kts | 291° |
| 2026-04-23 15:25 | 42.87532 | 8.91938 | 20791 ft | 392 kts | 291° |
| 2026-04-23 15:25 | 42.88437 | 8.88410 | 21308 ft | 395 kts | 291° |
| 2026-04-23 15:25 | 42.89333 | 8.84854 | 21837 ft | 399 kts | 291° |
| 2026-04-23 15:25 | 42.90238 | 8.81260 | 22354 ft | 402 kts | 291° |
| 2026-04-23 15:26 | 42.91157 | 8.77640 | 22883 ft | 406 kts | 291° |
| 2026-04-23 15:26 | 42.92086 | 8.73990 | 23387 ft | 409 kts | 291° |
| 2026-04-23 15:26 | 42.93019 | 8.70303 | 23868 ft | 412 kts | 290° |
| 2026-04-23 15:26 | 42.93954 | 8.66593 | 24321 ft | 415 kts | 290° |
| 2026-04-23 15:27 | 42.94896 | 8.62857 | 24750 ft | 418 kts | 290° |
| 2026-04-23 15:27 | 42.95838 | 8.59087 | 25159 ft | 421 kts | 290° |
| 2026-04-23 15:27 | 42.96787 | 8.55291 | 25564 ft | 424 kts | 290° |
| 2026-04-23 15:27 | 42.97743 | 8.51459 | 25963 ft | 428 kts | 290° |
| 2026-04-23 15:28 | 42.98703 | 8.47600 | 26359 ft | 431 kts | 290° |
| 2026-04-23 15:28 | 42.99676 | 8.43718 | 26748 ft | 434 kts | 290° |
| 2026-04-23 15:28 | 43.00651 | 8.39806 | 27123 ft | 437 kts | 289° |
| 2026-04-23 15:28 | 43.01371 | 8.35757 | 27507 ft | 441 kts | 279° |
| 2026-04-23 15:29 | 43.01698 | 8.31571 | 27929 ft | 443 kts | 276° |
| 2026-04-23 15:29 | 43.01992 | 8.27377 | 28395 ft | 443 kts | 279° |
| 2026-04-23 15:29 | 43.02521 | 8.23218 | 28787 ft | 445 kts | 281° |
| 2026-04-23 15:29 | 43.03064 | 8.19040 | 29173 ft | 448 kts | 281° |
| 2026-04-23 15:30 | 43.03600 | 8.14887 | 29527 ft | 451 kts | 281° |
| 2026-04-23 15:30 | 43.04125 | 8.10642 | 29890 ft | 454 kts | 281° |
| 2026-04-23 15:30 | 43.04661 | 8.06381 | 30232 ft | 457 kts | 281° |
| 2026-04-23 15:30 | 43.05201 | 8.02090 | 30522 ft | 459 kts | 281° |
| 2026-04-23 15:31 | 43.05734 | 7.97782 | 30835 ft | 461 kts | 281° |
| 2026-04-23 15:31 | 43.06272 | 7.93467 | 31237 ft | 458 kts | 281° |
| 2026-04-23 15:31 | 43.06797 | 7.89188 | 31742 ft | 455 kts | 282° |
| 2026-04-23 15:31 | 43.07311 | 7.84996 | 32144 ft | 439 kts | 282° |
| 2026-04-23 15:32 | 43.07801 | 7.80934 | 32219 ft | 428 kts | 282° |
| 2026-04-23 15:32 | 43.08780 | 7.72972 | 32218 ft | 423 kts | 282° |
| 2026-04-23 15:33 | 43.09755 | 7.65063 | 32218 ft | 421 kts | 282° |
| 2026-04-23 15:33 | 43.10707 | 7.57165 | 32210 ft | 418 kts | 283° |
| 2026-04-23 15:34 | 43.11629 | 7.49426 | 32221 ft | 409 kts | 283° |
| 2026-04-23 15:34 | 43.12555 | 7.41755 | 32220 ft | 408 kts | 283° |
| 2026-04-23 15:35 | 43.13458 | 7.34102 | 32222 ft | 407 kts | 283° |
| 2026-04-23 15:35 | 43.14367 | 7.26451 | 32221 ft | 407 kts | 283° |
| 2026-04-23 15:36 | 43.15252 | 7.18798 | 32221 ft | 407 kts | 283° |
| 2026-04-23 15:36 | 43.16153 | 7.11151 | 32213 ft | 407 kts | 283° |
| 2026-04-23 15:37 | 43.17036 | 7.03500 | 32206 ft | 406 kts | 282° |
| 2026-04-23 15:37 | 43.17762 | 6.97141 | 32204 ft | 406 kts | 283° |
| 2026-04-23 15:38 | 43.18781 | 6.88200 | 32201 ft | 407 kts | 282° |
| 2026-04-23 15:38 | 43.19656 | 6.80550 | 32213 ft | 402 kts | 284° |
| 2026-04-23 15:39 | 43.20507 | 6.73048 | 32224 ft | 396 kts | 284° |
| 2026-04-23 15:39 | 43.21347 | 6.65596 | 32225 ft | 395 kts | 284° |
| 2026-04-23 15:40 | 43.22005 | 6.58145 | 32222 ft | 400 kts | 277° |
| 2026-04-23 15:40 | 43.22094 | 6.50503 | 32203 ft | 401 kts | 276° |
| 2026-04-23 15:41 | 43.22194 | 6.42875 | 32193 ft | 400 kts | 277° |
| 2026-04-23 15:41 | 43.22293 | 6.35285 | 32216 ft | 397 kts | 277° |
| 2026-04-23 15:42 | 43.22384 | 6.27721 | 32240 ft | 396 kts | 277° |
| 2026-04-23 15:42 | 43.22482 | 6.20195 | 32233 ft | 395 kts | 277° |
| 2026-04-23 15:43 | 43.22565 | 6.12674 | 32227 ft | 394 kts | 277° |
| 2026-04-23 15:43 | 43.22650 | 6.05174 | 32206 ft | 393 kts | 277° |
| 2026-04-23 15:44 | 43.22718 | 5.97691 | 32227 ft | 392 kts | 277° |
| 2026-04-23 15:44 | 43.22792 | 5.90229 | 32230 ft | 391 kts | 277° |
| 2026-04-23 15:45 | 43.22858 | 5.82781 | 32229 ft | 390 kts | 277° |
| 2026-04-23 15:45 | 43.22915 | 5.75354 | 32225 ft | 390 kts | 277° |
| 2026-04-23 15:46 | 43.22977 | 5.67934 | 32206 ft | 389 kts | 277° |
| 2026-04-23 15:46 | 43.23208 | 5.60574 | 32211 ft | 380 kts | 288° |
| 2026-04-23 15:47 | 43.24463 | 5.54757 | 32217 ft | 391 kts | 292° |
| 2026-04-23 15:47 | 43.26085 | 5.47484 | 32219 ft | 403 kts | 291° |
| 2026-04-23 15:48 | 43.27693 | 5.40089 | 32216 ft | 405 kts | 291° |
| 2026-04-23 15:48 | 43.29313 | 5.32688 | 32192 ft | 405 kts | 291° |
| 2026-04-23 15:49 | 43.30922 | 5.25283 | 32226 ft | 405 kts | 291° |
| 2026-04-23 15:49 | 43.32532 | 5.17869 | 32220 ft | 405 kts | 291° |
| 2026-04-23 15:50 | 43.34132 | 5.10452 | 32215 ft | 405 kts | 291° |
| 2026-04-23 15:50 | 43.35731 | 5.03023 | 32213 ft | 405 kts | 291° |
| 2026-04-23 15:51 | 43.37321 | 4.95600 | 32234 ft | 405 kts | 291° |
| 2026-04-23 15:51 | 43.38912 | 4.88169 | 32216 ft | 405 kts | 290° |
| 2026-04-23 15:52 | 43.40494 | 4.80728 | 32223 ft | 405 kts | 290° |
| 2026-04-23 15:52 | 43.42076 | 4.73286 | 32224 ft | 405 kts | 290° |
| 2026-04-23 15:53 | 43.43647 | 4.65838 | 32213 ft | 405 kts | 290° |
| 2026-04-23 15:53 | 43.45220 | 4.58387 | 32217 ft | 406 kts | 290° |
| 2026-04-23 15:54 | 43.46791 | 4.50923 | 32199 ft | 406 kts | 290° |
| 2026-04-23 15:54 | 43.48346 | 4.43494 | 32207 ft | 407 kts | 290° |
| 2026-04-23 15:55 | 43.49915 | 4.35951 | 32218 ft | 407 kts | 290° |
| 2026-04-23 15:55 | 43.51463 | 4.28497 | 32224 ft | 408 kts | 290° |
| 2026-04-23 15:56 | 43.53021 | 4.20930 | 32232 ft | 408 kts | 290° |
| 2026-04-23 15:56 | 43.54572 | 4.13411 | 32216 ft | 408 kts | 289° |
| 2026-04-23 15:57 | 43.56122 | 4.05866 | 32232 ft | 409 kts | 289° |
| 2026-04-23 15:57 | 43.57671 | 3.98366 | 32232 ft | 409 kts | 292° |
| 2026-04-23 15:58 | 43.59938 | 3.91229 | 32242 ft | 406 kts | 298° |
| 2026-04-23 15:58 | 43.62321 | 3.84170 | 32246 ft | 406 kts | 298° |
| 2026-04-23 15:59 | 43.64711 | 3.77103 | 32223 ft | 406 kts | 297° |
| 2026-04-23 15:59 | 43.67087 | 3.70012 | 32227 ft | 407 kts | 297° |
| 2026-04-23 16:00 | 43.69460 | 3.62896 | 32232 ft | 408 kts | 297° |
| 2026-04-23 16:00 | 43.71843 | 3.55780 | 32241 ft | 408 kts | 297° |
| 2026-04-23 16:01 | 43.74209 | 3.48644 | 32239 ft | 408 kts | 297° |
| 2026-04-23 16:01 | 43.76579 | 3.41503 | 32240 ft | 409 kts | 297° |
| 2026-04-23 16:02 | 43.78942 | 3.34354 | 32235 ft | 408 kts | 297° |
| 2026-04-23 16:02 | 43.81306 | 3.27197 | 32233 ft | 409 kts | 297° |
| 2026-04-23 16:03 | 43.83663 | 3.20035 | 32231 ft | 409 kts | 297° |
| 2026-04-23 16:03 | 43.86013 | 3.12864 | 32229 ft | 409 kts | 297° |
| 2026-04-23 16:04 | 43.88351 | 3.05733 | 32232 ft | 409 kts | 297° |
| 2026-04-23 16:04 | 43.90699 | 2.98542 | 32198 ft | 410 kts | 297° |
| 2026-04-23 16:05 | 43.92668 | 2.92498 | 32199 ft | 411 kts | 297° |
| 2026-04-23 16:05 | 43.95404 | 2.84096 | 32197 ft | 412 kts | 296° |
| 2026-04-23 16:06 | 43.97742 | 2.76845 | 32205 ft | 412 kts | 296° |
| 2026-04-23 16:06 | 44.00085 | 2.69586 | 32202 ft | 412 kts | 296° |
| 2026-04-23 16:07 | 44.02425 | 2.62320 | 32181 ft | 412 kts | 296° |
| 2026-04-23 16:07 | 44.04760 | 2.55039 | 32180 ft | 413 kts | 296° |
| 2026-04-23 16:08 | 44.07102 | 2.47749 | 32182 ft | 413 kts | 296° |
| 2026-04-23 16:08 | 44.09429 | 2.40441 | 32181 ft | 413 kts | 296° |
| 2026-04-23 16:09 | 44.11762 | 2.33133 | 32185 ft | 413 kts | 296° |
| 2026-04-23 16:09 | 44.14090 | 2.25811 | 32170 ft | 414 kts | 296° |
| 2026-04-23 16:10 | 44.16417 | 2.18469 | 32170 ft | 415 kts | 295° |
| 2026-04-23 16:10 | 44.18733 | 2.11112 | 32163 ft | 415 kts | 295° |
| 2026-04-23 16:11 | 44.21052 | 2.03745 | 32183 ft | 415 kts | 295° |
| 2026-04-23 16:11 | 44.23369 | 1.96368 | 32171 ft | 415 kts | 295° |
| 2026-04-23 16:12 | 44.25682 | 1.88986 | 32157 ft | 416 kts | 295° |
| 2026-04-23 16:12 | 44.27994 | 1.81591 | 32151 ft | 416 kts | 295° |
| 2026-04-23 16:13 | 44.30281 | 1.74225 | 32155 ft | 416 kts | 295° |
| 2026-04-23 16:13 | 44.33742 | 1.63091 | 32147 ft | 417 kts | 295° |
| 2026-04-23 16:14 | 44.36039 | 1.55660 | 32153 ft | 417 kts | 295° |
| 2026-04-23 16:14 | 44.38331 | 1.48220 | 32131 ft | 417 kts | 295° |
| 2026-04-23 16:15 | 44.40624 | 1.40768 | 32134 ft | 417 kts | 295° |
| 2026-04-23 16:15 | 44.42908 | 1.33306 | 31594 ft | 417 kts | 294° |
| 2026-04-23 16:16 | 44.44040 | 1.29586 | 30847 ft | 416 kts | 294° |
| 2026-04-23 16:16 | 44.45190 | 1.25833 | 29738 ft | 423 kts | 294° |
| 2026-04-23 16:16 | 44.46347 | 1.22055 | 28874 ft | 422 kts | 294° |
| 2026-04-23 16:16 | 44.47467 | 1.18276 | 28112 ft | 419 kts | 294° |
| 2026-04-23 16:17 | 44.48576 | 1.14522 | 27392 ft | 415 kts | 294° |
| 2026-04-23 16:17 | 44.49674 | 1.10801 | 26746 ft | 412 kts | 293° |
| 2026-04-23 16:17 | 44.50758 | 1.07113 | 26081 ft | 408 kts | 293° |
| 2026-04-23 16:17 | 44.51835 | 1.03449 | 25437 ft | 405 kts | 293° |
| 2026-04-23 16:18 | 44.52908 | 0.99820 | 24805 ft | 402 kts | 293° |
| 2026-04-23 16:18 | 44.53975 | 0.96216 | 24197 ft | 399 kts | 293° |
| 2026-04-23 16:18 | 44.55025 | 0.92630 | 23570 ft | 396 kts | 293° |
| 2026-04-23 16:18 | 44.56070 | 0.89071 | 22870 ft | 393 kts | 293° |
| 2026-04-23 16:19 | 44.57096 | 0.85537 | 22314 ft | 388 kts | 293° |
| 2026-04-23 16:19 | 44.58115 | 0.82064 | 21821 ft | 383 kts | 293° |
| 2026-04-23 16:19 | 44.59117 | 0.78630 | 21314 ft | 378 kts | 293° |
| 2026-04-23 16:19 | 44.60108 | 0.75240 | 20800 ft | 374 kts | 293° |
| 2026-04-23 16:20 | 44.61088 | 0.71878 | 20314 ft | 370 kts | 292° |
| 2026-04-23 16:20 | 44.62052 | 0.68547 | 19824 ft | 367 kts | 293° |
| 2026-04-23 16:20 | 44.63011 | 0.65239 | 19329 ft | 365 kts | 293° |
| 2026-04-23 16:20 | 44.63965 | 0.61954 | 18840 ft | 363 kts | 292° |
| 2026-04-23 16:21 | 44.64912 | 0.58671 | 18349 ft | 362 kts | 292° |
| 2026-04-23 16:21 | 44.65845 | 0.55452 | 17815 ft | 360 kts | 292° |
| 2026-04-23 16:21 | 44.66784 | 0.52212 | 17339 ft | 357 kts | 292° |
| 2026-04-23 16:21 | 44.67711 | 0.48990 | 16860 ft | 354 kts | 292° |
| 2026-04-23 16:22 | 44.68632 | 0.45789 | 16395 ft | 352 kts | 292° |
| 2026-04-23 16:22 | 44.69545 | 0.42602 | 15935 ft | 351 kts | 292° |
| 2026-04-23 16:22 | 44.70455 | 0.39434 | 15484 ft | 349 kts | 292° |
| 2026-04-23 16:22 | 44.71358 | 0.36285 | 15028 ft | 346 kts | 292° |
| 2026-04-23 16:23 | 44.72256 | 0.33158 | 14594 ft | 344 kts | 292° |
| 2026-04-23 16:23 | 44.73205 | 0.30079 | 14149 ft | 343 kts | 294° |
| 2026-04-23 16:23 | 44.74206 | 0.27043 | 13674 ft | 342 kts | 294° |
| 2026-04-23 16:23 | 44.75194 | 0.24011 | 13196 ft | 340 kts | 294° |
| 2026-04-23 16:24 | 44.76168 | 0.20993 | 12744 ft | 337 kts | 294° |
| 2026-04-23 16:24 | 44.77135 | 0.17997 | 12280 ft | 335 kts | 293° |
| 2026-04-23 16:24 | 44.78091 | 0.15026 | 11830 ft | 332 kts | 293° |
| 2026-04-23 16:24 | 44.79039 | 0.12069 | 11384 ft | 330 kts | 293° |
| 2026-04-23 16:25 | 44.79985 | 0.09136 | 10930 ft | 328 kts | 293° |
| 2026-04-23 16:25 | 44.80920 | 0.06223 | 10480 ft | 325 kts | 293° |
| 2026-04-23 16:25 | 44.81839 | 0.03363 | 10309 ft | 315 kts | 292° |
| 2026-04-23 16:25 | 44.82718 | 0.00620 | 10185 ft | 298 kts | 292° |
| 2026-04-23 16:26 | 44.83541 | -0.01943 | 10036 ft | 278 kts | 292° |
| 2026-04-23 16:26 | 44.84324 | -0.04378 | 9674 ft | 269 kts | 292° |
| 2026-04-23 16:26 | 44.85087 | -0.06763 | 9333 ft | 266 kts | 291° |
| 2026-04-23 16:26 | 44.85841 | -0.09149 | 8985 ft | 266 kts | 291° |
| 2026-04-23 16:27 | 44.86594 | -0.11526 | 8654 ft | 266 kts | 291° |
| 2026-04-23 16:27 | 44.87353 | -0.13918 | 8307 ft | 267 kts | 293° |
| 2026-04-23 16:27 | 44.88112 | -0.16307 | 7938 ft | 267 kts | 292° |
| 2026-04-23 16:27 | 44.88816 | -0.18718 | 7578 ft | 266 kts | 285° |
| 2026-04-23 16:28 | 44.89184 | -0.21262 | 7222 ft | 264 kts | 276° |
| 2026-04-23 16:28 | 44.89402 | -0.23842 | 6858 ft | 266 kts | 274° |
| 2026-04-23 16:28 | 44.89615 | -0.26431 | 6483 ft | 266 kts | 276° |
| 2026-04-23 16:28 | 44.89837 | -0.29022 | 6077 ft | 267 kts | 275° |
| 2026-04-23 16:29 | 44.90054 | -0.31623 | 5690 ft | 267 kts | 275° |
| 2026-04-23 16:29 | 44.90272 | -0.34223 | 5302 ft | 268 kts | 275° |
| 2026-04-23 16:29 | 44.90491 | -0.36804 | 4915 ft | 268 kts | 275° |
| 2026-04-23 16:29 | 44.90712 | -0.39418 | 4516 ft | 268 kts | 276° |
| 2026-04-23 16:30 | 44.90933 | -0.42039 | 4155 ft | 267 kts | 275° |
| 2026-04-23 16:30 | 44.91144 | -0.44575 | 4076 ft | 254 kts | 275° |
| 2026-04-23 16:30 | 44.91349 | -0.46999 | 3976 ft | 246 kts | 275° |
| 2026-04-23 16:30 | 44.91555 | -0.49444 | 3930 ft | 254 kts | 275° |
| 2026-04-23 16:31 | 44.91764 | -0.51916 | 3868 ft | 253 kts | 275° |
| 2026-04-23 16:31 | 44.91968 | -0.54371 | 3807 ft | 252 kts | 275° |
| 2026-04-23 16:31 | 44.92169 | -0.56830 | 3748 ft | 252 kts | 275° |
| 2026-04-23 16:31 | 44.92370 | -0.59290 | 3689 ft | 252 kts | 275° |
| 2026-04-23 16:32 | 44.92572 | -0.61738 | 3630 ft | 251 kts | 275° |
| 2026-04-23 16:32 | 44.92777 | -0.64177 | 3570 ft | 247 kts | 275° |
| 2026-04-23 16:32 | 44.92970 | -0.66540 | 3514 ft | 242 kts | 275° |
| 2026-04-23 16:32 | 44.93163 | -0.68897 | 3463 ft | 242 kts | 275° |
| 2026-04-23 16:33 | 44.93356 | -0.71259 | 3399 ft | 242 kts | 275° |
| 2026-04-23 16:33 | 44.93547 | -0.73617 | 3344 ft | 242 kts | 275° |
| 2026-04-23 16:33 | 44.93739 | -0.75979 | 3286 ft | 243 kts | 276° |
| 2026-04-23 16:33 | 44.93930 | -0.78345 | 3229 ft | 242 kts | 276° |
| 2026-04-23 16:34 | 44.94119 | -0.80705 | 3161 ft | 242 kts | 275° |
| 2026-04-23 16:34 | 44.94246 | -0.82271 | 3124 ft | 243 kts | 276° |
| 2026-04-23 16:34 | 44.94441 | -0.84639 | 3081 ft | 243 kts | 276° |
| 2026-04-23 16:34 | 44.94572 | -0.87002 | 3052 ft | 241 kts | 263° |
| 2026-04-23 16:35 | 44.94080 | -0.89205 | 3024 ft | 236 kts | 232° |
| 2026-04-23 16:35 | 44.92932 | -0.90787 | 2770 ft | 229 kts | 202° |
| 2026-04-23 16:35 | 44.91500 | -0.91506 | 2646 ft | 211 kts | 191° |
| 2026-04-23 16:35 | 44.90130 | -0.92056 | 2543 ft | 198 kts | 190° |
| 2026-04-23 16:36 | 44.88860 | -0.92490 | 2396 ft | 179 kts | 176° |
| 2026-04-23 16:36 | 44.87712 | -0.92116 | 2099 ft | 165 kts | 143° |
| 2026-04-23 16:36 | 44.86963 | -0.90999 | 1997 ft | 156 kts | 115° |
| 2026-04-23 16:36 | 44.86614 | -0.89555 | 1985 ft | 157 kts | 106° |
| 2026-04-23 16:37 | 44.86305 | -0.88066 | 1981 ft | 158 kts | 107° |
| 2026-04-23 16:37 | 44.85995 | -0.86574 | 1970 ft | 158 kts | 106° |
| 2026-04-23 16:37 | 44.85696 | -0.85124 | 1967 ft | 145 kts | 105° |
| 2026-04-23 16:37 | 44.85430 | -0.83838 | 1968 ft | 131 kts | 106° |
| 2026-04-23 16:38 | 44.85178 | -0.82618 | 1733 ft | 128 kts | 106° |
| 2026-04-23 16:38 | 44.84932 | -0.81438 | 1538 ft | 125 kts | 107° |
| 2026-04-23 16:38 | 44.84688 | -0.80266 | 1354 ft | 125 kts | 107° |
| 2026-04-23 16:38 | 44.84443 | -0.79087 | 1156 ft | 125 kts | 107° |
| 2026-04-23 16:39 | 44.84195 | -0.77898 | 972 ft | 128 kts | 107° |
| 2026-04-23 16:39 | 44.83945 | -0.76702 | 788 ft | 123 kts | 106° |
| 2026-04-23 16:39 | 44.83706 | -0.75556 | 608 ft | 123 kts | 108° |
| 2026-04-23 16:39 | 44.83457 | -0.74390 | 385 ft | 128 kts | 109° |
| 2026-04-23 16:40 | 44.83221 | -0.73210 | 248 ft | 126 kts | 108° |
| 2026-04-23 16:40 | 44.82980 | -0.72072 | 162 ft | 109 kts | 109° |
| 2026-04-23 16:40 | 44.82821 | -0.71333 | 153 ft | 48 kts | 106° |
| 2026-04-23 16:40 | 44.82737 | -0.70941 | 154 ft | 37 kts | 107° |
| 2026-04-23 16:41 | 44.82672 | -0.70633 | 156 ft | 30 kts | 106° |
| 2026-04-23 16:41 | 44.82620 | -0.70385 | 161 ft | 24 kts | 106° |
| 2026-04-23 16:41 | 44.82571 | -0.70157 | 161 ft | 24 kts | 107° |
| 2026-04-23 16:41 | 44.82576 | -0.69996 | 160 ft | 11 kts | 44° |
| 2026-04-23 16:42 | 44.82621 | -0.69965 | 159 ft | 8 kts | 15° |
| 2026-04-23 16:42 | 44.82682 | -0.69941 | 158 ft | 8 kts | 15° |
| 2026-04-23 16:42 | 44.82732 | -0.69957 | 158 ft | 7 kts | 306° |
| 2026-04-23 16:42 | 44.82747 | -0.70020 | 158 ft | 7 kts | 285° |
| 2026-04-23 16:43 | 44.82766 | -0.70108 | 158 ft | 10 kts | 287° |
| 2026-04-23 16:43 | 44.82797 | -0.70169 | 158 ft | 8 kts | 339° |
| 2026-04-23 16:43 | 44.82831 | -0.70108 | 158 ft | 7 kts | 96° |
| 2026-04-23 16:43 | 44.82818 | -0.70046 | 158 ft | 8 kts | 107° |
| 2026-04-23 16:44 | 44.82820 | -0.69986 | 158 ft | 4 kts | 34° |
| 2026-04-23 16:44 | 44.82837 | -0.69976 | 158 ft | 5 kts | 16° |
| 2026-04-23 16:44 | 44.82857 | -0.69969 | 158 ft | 0 kts | 15° |